Pagrindinis puslapis
METAR-TAF:

METAR-TAF

Oro uostai :

Bastja, Prancūzija

platuma: 42-33N, ilguma: 009-29E, Aukštis: 8 m

Dabartinis oras

Ataskaita buvo paskelbta 18 minutes, ne 03:30 UTC
Vėjas 3 kt nuo kintamojo kryptimis
Temperatūra 7°C
Drėgmė 87%
Slėgis 1019 hPa
Matomumas 10 km arba daugiau
Mažai debesys ne aukštis 8800 ft

METAR: LFKB 180330Z AUTO VRB03KT 9999 FEW088 07/05 Q1019 NOSIG

Laikas: 04:48 (03:48 UTC)

Prognozė

Ataskaita buvo paskelbta 1 valandą ir 48 minutes, ne 02:00 UTC
Prognozė galioja nuo 18 metu 03 UTC su 19 metu 03 UTC
Vėjas 5 kt nuo kintamojo kryptimis
Matomumas 10 km arba daugiau
Išsisklaidę debesys ne aukštis 6000 ft
Tapsmas
nuo 18 metu 07 UTC su 18 metu 09 UTC
Vėjas 12 kt iš Šiaurės/Šiaurės Vakarų
Mažai debesys ne aukštis 3000 ft
Tapsmas
nuo 18 metu 19 UTC su 18 metu 21 UTC
Vėjas 5 kt iš Vakarų/Pietvakarių

TAF: LFKB 180200Z 1803/1903 VRB05KT 9999 SCT060 TX16/1812Z TN08/1804Z BECMG 1807/1809 33012KT FEW030 BECMG 1819/1821 24005KT

Orai ataskaitas ir orų prognozės (METAR, TAF).

turimą stotys yra geltonos ir raudonos taškus žemėlapyje.

Perkelti pele per norėdami pamatyti stoties vardą.

Tada spustelėkite, norėdami matyti oro stebėjimo ir prognozės.

Norėdami pakeisti žemėlapį: spustelėkite ant žalios mygtukų su juodo kryžiaus žemyn,; žalią mygtuką su brūkšneliu, jei norite nutolinti; arba žalių rodyklių gretimoms žemėlapius.


METAR-TAF: